createdAt,value
2022-10-20T00:01:10.131Z,0
2022-10-20T00:02:26.303Z,0
2022-10-20T00:03:42.712Z,0
2022-10-20T00:04:58.898Z,0
2022-10-20T00:06:14.872Z,0
2022-10-20T00:07:31.284Z,0
2022-10-20T00:08:47.468Z,0
2022-10-20T00:10:02.468Z,0
2022-10-20T00:11:17.882Z,0
2022-10-20T00:12:32.886Z,0
2022-10-20T00:13:48.295Z,0
2022-10-20T00:15:04.269Z,0
2022-10-20T00:16:20.452Z,0
2022-10-20T00:17:36.869Z,0
2022-10-20T00:18:53.054Z,0
2022-10-20T00:20:09.006Z,0
2022-10-20T00:21:25.210Z,0
2022-10-20T00:22:41.400Z,0
2022-10-20T00:23:57.806Z,0
2022-10-20T00:25:13.984Z,0
2022-10-20T00:26:29.960Z,0
2022-10-20T00:27:46.127Z,0
2022-10-20T00:29:02.334Z,0
2022-10-20T00:30:17.758Z,0
2022-10-20T00:31:33.949Z,0
2022-10-20T00:32:50.123Z,0
2022-10-20T00:34:06.090Z,0
2022-10-20T00:35:22.271Z,0
2022-10-20T00:36:38.454Z,0
2022-10-20T00:37:54.639Z,0
2022-10-20T00:39:09.856Z,0
2022-10-20T00:40:25.072Z,0
2022-10-20T00:41:41.474Z,0
2022-10-20T00:42:56.692Z,0
2022-10-20T00:44:11.662Z,0
2022-10-20T00:45:28.087Z,0
2022-10-20T00:46:44.054Z,0
2022-10-20T00:48:00.237Z,0
2022-10-20T00:49:16.408Z,0
2022-10-20T00:50:32.598Z,0
2022-10-20T00:51:48.795Z,0
2022-10-20T00:53:05.216Z,0
2022-10-20T00:54:21.172Z,0
2022-10-20T00:55:37.588Z,0
2022-10-20T00:56:53.545Z,0
2022-10-20T00:58:09.953Z,0
2022-10-20T00:59:25.910Z,0
2022-10-20T01:00:41.108Z,0
2022-10-20T01:01:57.292Z,0
2022-10-20T01:03:13.713Z,0
2022-10-20T01:04:29.682Z,0
2022-10-20T01:05:45.872Z,0
2022-10-20T01:07:02.047Z,0
2022-10-20T01:08:18.478Z,0
2022-10-20T01:09:33.449Z,0
2022-10-20T01:10:48.890Z,0
2022-10-20T01:12:04.103Z,0
2022-10-20T01:13:19.079Z,0
2022-10-20T01:14:35.259Z,0
2022-10-20T01:15:51.678Z,0
2022-10-20T01:17:07.628Z,0
2022-10-20T01:18:23.822Z,0
2022-10-20T01:19:40.238Z,0
2022-10-20T01:20:56.422Z,0
2022-10-20T01:22:12.374Z,0
2022-10-20T01:23:28.804Z,0
2022-10-20T01:24:44.751Z,0
2022-10-20T01:26:00.931Z,0
2022-10-20T01:27:17.372Z,0
2022-10-20T01:28:33.303Z,0
2022-10-20T01:29:48.506Z,0
2022-10-20T01:31:04.713Z,0
2022-10-20T01:32:20.896Z,0
2022-10-20T01:33:37.315Z,0
2022-10-20T01:34:53.501Z,0
2022-10-20T01:36:09.703Z,0
2022-10-20T01:37:25.642Z,0
2022-10-20T01:38:40.854Z,0
2022-10-20T01:39:56.058Z,0
2022-10-20T01:41:11.268Z,0
2022-10-20T01:42:26.463Z,0
2022-10-20T01:43:41.685Z,0
2022-10-20T01:44:56.896Z,0
2022-10-20T01:46:13.321Z,0
2022-10-20T01:47:29.266Z,0
2022-10-20T01:48:45.440Z,0
2022-10-20T01:50:01.890Z,0
2022-10-20T01:51:17.827Z,0
2022-10-20T01:52:34.015Z,0
2022-10-20T01:53:50.199Z,0
2022-10-20T01:55:06.390Z,0
2022-10-20T01:56:22.572Z,0
2022-10-20T01:57:38.769Z,0
2022-10-20T01:58:55.188Z,0
2022-10-20T02:00:11.125Z,0
2022-10-20T02:01:26.334Z,0
2022-10-20T02:02:42.529Z,0
2022-10-20T02:03:58.717Z,0
2022-10-20T02:05:15.148Z,0
2022-10-20T02:06:31.086Z,0
2022-10-20T02:07:47.276Z,0
2022-10-20T02:09:03.466Z,0
2022-10-20T02:10:18.682Z,0
2022-10-20T02:11:34.122Z,0
2022-10-20T02:12:50.314Z,0
2022-10-20T02:14:06.500Z,0
2022-10-20T02:15:22.439Z,0
2022-10-20T02:16:38.629Z,0
2022-10-20T02:17:54.813Z,0
2022-10-20T02:19:11.252Z,0
2022-10-20T02:20:27.438Z,0
2022-10-20T02:21:43.375Z,0
2022-10-20T02:22:59.550Z,0
2022-10-20T02:24:15.992Z,0
2022-10-20T02:25:31.937Z,0
2022-10-20T02:26:48.373Z,0
2022-10-20T02:28:03.571Z,0
2022-10-20T02:29:19.501Z,0
2022-10-20T02:30:35.697Z,0
2022-10-20T02:31:52.145Z,0
2022-10-20T02:33:08.081Z,0
2022-10-20T02:34:24.262Z,0
2022-10-20T02:35:40.700Z,0
2022-10-20T02:36:55.916Z,0
2022-10-20T02:38:10.873Z,0
2022-10-20T02:39:26.346Z,0
2022-10-20T02:40:41.278Z,0
2022-10-20T02:41:57.718Z,0
2022-10-20T02:43:13.917Z,0
2022-10-20T02:44:30.098Z,0
2022-10-20T02:45:46.030Z,0
2022-10-20T02:47:02.209Z,0
2022-10-20T02:48:18.411Z,0
2022-10-20T02:49:34.856Z,0
2022-10-20T02:50:51.035Z,0
2022-10-20T02:52:07.217Z,0
2022-10-20T02:53:23.162Z,0
2022-10-20T02:54:39.330Z,0
2022-10-20T02:55:55.528Z,0
2022-10-20T02:57:10.991Z,0
2022-10-20T02:58:26.920Z,0
2022-10-20T02:59:43.103Z,0
2022-10-20T03:00:59.295Z,0
2022-10-20T03:02:15.734Z,0
2022-10-20T03:03:31.673Z,0
2022-10-20T03:04:48.119Z,0
2022-10-20T03:06:03.072Z,0
2022-10-20T03:07:18.276Z,0
2022-10-20T03:08:33.482Z,0
2022-10-20T03:09:48.677Z,0
2022-10-20T03:11:03.893Z,0
2022-10-20T03:12:19.104Z,0
2022-10-20T03:13:35.286Z,0
2022-10-20T03:14:51.738Z,0
2022-10-20T03:16:07.653Z,0
2022-10-20T03:17:24.114Z,0
2022-10-20T03:18:40.037Z,0
2022-10-20T03:19:56.214Z,0
2022-10-20T03:21:12.680Z,0
2022-10-20T03:22:28.860Z,0
2022-10-20T03:23:44.775Z,0
2022-10-20T03:25:00.973Z,0
2022-10-20T03:26:17.163Z,0
2022-10-20T03:27:33.621Z,0
2022-10-20T03:28:48.814Z,0
2022-10-20T03:30:05.010Z,0
2022-10-20T03:31:20.918Z,0
2022-10-20T03:32:37.113Z,0
2022-10-20T03:33:53.556Z,0
2022-10-20T03:35:09.746Z,0
2022-10-20T03:36:25.933Z,0
2022-10-20T03:37:40.883Z,0
2022-10-20T03:38:56.079Z,0
2022-10-20T03:40:11.570Z,0
2022-10-20T03:41:26.512Z,0
2022-10-20T03:42:42.955Z,0
2022-10-20T03:43:59.155Z,0
2022-10-20T03:45:15.067Z,0
2022-10-20T03:46:31.247Z,0
2022-10-20T03:47:47.430Z,0
2022-10-20T03:49:03.626Z,0
2022-10-20T03:50:19.819Z,0
2022-10-20T03:51:35.995Z,0
2022-10-20T03:52:52.463Z,0
2022-10-20T03:54:08.375Z,0
2022-10-20T03:55:24.833Z,0
2022-10-20T03:56:40.740Z,0
2022-10-20T03:57:55.946Z,0
2022-10-20T03:59:12.413Z,0
2022-10-20T04:00:28.323Z,0
2022-10-20T04:01:44.515Z,0
2022-10-20T04:03:00.974Z,0
2022-10-20T04:04:16.878Z,0
2022-10-20T04:05:33.079Z,0
2022-10-20T04:06:48.282Z,0
2022-10-20T04:08:03.761Z,0
2022-10-20T04:09:19.684Z,0
2022-10-20T04:10:35.853Z,0
2022-10-20T04:11:52.054Z,0
2022-10-20T04:13:08.243Z,0
2022-10-20T04:14:24.694Z,0
2022-10-20T04:15:40.895Z,0
2022-10-20T04:16:56.806Z,0
2022-10-20T04:18:13.274Z,0
2022-10-20T04:19:29.173Z,0
2022-10-20T04:20:45.648Z,0
2022-10-20T04:22:01.840Z,0
2022-10-20T04:23:17.736Z,0
2022-10-20T04:24:32.948Z,0
2022-10-20T04:25:49.408Z,0
2022-10-20T04:27:05.322Z,0
2022-10-20T04:28:21.507Z,0
2022-10-20T04:29:37.700Z,0
2022-10-20T04:30:53.894Z,0
2022-10-20T04:32:10.078Z,0
2022-10-20T04:33:25.577Z,0
2022-10-20T04:34:40.492Z,0
2022-10-20T04:35:55.991Z,0
2022-10-20T04:37:10.907Z,0
2022-10-20T04:38:26.127Z,0
2022-10-20T04:39:41.324Z,0
2022-10-20T04:40:57.523Z,0
2022-10-20T04:42:13.705Z,0
2022-10-20T04:43:29.897Z,0
2022-10-20T04:44:46.365Z,0
2022-10-20T04:46:02.568Z,0
2022-10-20T04:47:18.473Z,0
2022-10-20T04:48:34.655Z,0
2022-10-20T04:49:50.846Z,0
2022-10-20T04:51:07.318Z,0
2022-10-20T04:52:23.501Z,0
2022-10-20T04:53:39.404Z,0
2022-10-20T04:54:55.602Z,0
2022-10-20T04:56:11.079Z,0
2022-10-20T04:57:26.999Z,0
2022-10-20T04:58:43.469Z,0
2022-10-20T04:59:59.651Z,0
2022-10-20T05:01:15.549Z,0
2022-10-20T05:02:31.754Z,0
2022-10-20T05:03:47.927Z,0
2022-10-20T05:05:03.154Z,0
2022-10-20T05:06:18.347Z,0
2022-10-20T05:07:34.826Z,0
2022-10-20T05:08:50.042Z,0
2022-10-20T05:10:04.968Z,0
2022-10-20T05:11:21.432Z,0
2022-10-20T05:12:37.335Z,0
2022-10-20T05:13:53.527Z,0
2022-10-20T05:15:10.006Z,4
2022-10-20T05:16:26.197Z,0
2022-10-20T05:17:42.086Z,4
2022-10-20T05:18:58.273Z,4
2022-10-20T05:20:14.477Z,4
2022-10-20T05:21:30.948Z,8
2022-10-20T05:22:47.139Z,8
2022-10-20T05:24:03.317Z,8
2022-10-20T05:25:19.222Z,8
2022-10-20T05:26:34.437Z,12
2022-10-20T05:27:50.618Z,16
2022-10-20T05:29:07.091Z,16
2022-10-20T05:30:23.005Z,20
2022-10-20T05:31:39.191Z,24
2022-10-20T05:32:55.368Z,28
2022-10-20T05:34:11.563Z,28
2022-10-20T05:35:26.779Z,36
2022-10-20T05:36:41.978Z,40
2022-10-20T05:37:57.489Z,44
2022-10-20T05:39:12.402Z,56
2022-10-20T05:40:28.597Z,60
2022-10-20T05:41:44.786Z,64
2022-10-20T05:43:00.959Z,72
2022-10-20T05:44:17.148Z,80
2022-10-20T05:45:33.633Z,88
2022-10-20T05:46:49.532Z,96
2022-10-20T05:48:05.715Z,104
2022-10-20T05:49:21.911Z,112
2022-10-20T05:50:38.095Z,120
2022-10-20T05:51:54.282Z,128
2022-10-20T05:53:10.477Z,136
2022-10-20T05:54:26.658Z,144
2022-10-20T05:55:41.868Z,152
2022-10-20T05:56:58.326Z,160
2022-10-20T05:58:14.527Z,168
2022-10-20T05:59:30.717Z,176
2022-10-20T06:00:46.906Z,184
2022-10-20T06:02:03.077Z,192
2022-10-20T06:03:19.264Z,200
2022-10-20T06:04:34.494Z,204
2022-10-20T06:05:49.698Z,216
2022-10-20T06:07:05.872Z,220
2022-10-20T06:08:21.094Z,224
2022-10-20T06:09:36.293Z,228
2022-10-20T06:10:52.502Z,236
2022-10-20T06:12:08.701Z,248
2022-10-20T06:13:24.867Z,260
2022-10-20T06:14:41.096Z,276
2022-10-20T06:15:57.251Z,280
2022-10-20T06:17:13.441Z,296
2022-10-20T06:18:29.662Z,304
2022-10-20T06:19:45.811Z,308
2022-10-20T06:21:02.012Z,320
2022-10-20T06:22:18.184Z,340
2022-10-20T06:23:34.381Z,356
2022-10-20T06:24:50.575Z,356
2022-10-20T06:26:05.782Z,356
2022-10-20T06:27:21.986Z,368
2022-10-20T06:28:38.148Z,376
2022-10-20T06:29:54.341Z,372
2022-10-20T06:31:10.525Z,380
2022-10-20T06:32:26.726Z,392
2022-10-20T06:33:42.907Z,416
2022-10-20T06:34:58.117Z,440
2022-10-20T06:36:13.330Z,468
2022-10-20T06:37:29.546Z,504
2022-10-20T06:38:45.710Z,532
2022-10-20T06:40:01.926Z,548
2022-10-20T06:41:18.088Z,556
2022-10-20T06:42:34.261Z,548
2022-10-20T06:43:50.492Z,572
2022-10-20T06:45:06.647Z,584
2022-10-20T06:46:22.871Z,580
2022-10-20T06:47:39.015Z,624
2022-10-20T06:48:55.216Z,668
2022-10-20T06:50:11.438Z,676
2022-10-20T06:51:27.583Z,688
2022-10-20T06:52:42.843Z,704
2022-10-20T06:53:59.027Z,724
2022-10-20T06:55:15.171Z,736
2022-10-20T06:56:31.361Z,740
2022-10-20T06:57:47.559Z,752
2022-10-20T06:59:03.779Z,756
2022-10-20T07:00:19.924Z,764
2022-10-20T07:01:35.139Z,768
2022-10-20T07:02:50.389Z,780
2022-10-20T07:04:05.563Z,792
2022-10-20T07:05:20.827Z,808
2022-10-20T07:06:36.026Z,816
2022-10-20T07:07:51.188Z,812
2022-10-20T07:09:07.434Z,828
2022-10-20T07:10:23.625Z,832
2022-10-20T07:11:39.818Z,848
2022-10-20T07:12:55.942Z,852
2022-10-20T07:14:12.176Z,852
2022-10-20T07:15:28.337Z,848
2022-10-20T07:16:44.510Z,852
2022-10-20T07:18:00.760Z,836
2022-10-20T07:19:16.907Z,840
2022-10-20T07:20:33.091Z,836
2022-10-20T07:21:49.330Z,836
2022-10-20T07:23:05.515Z,820
2022-10-20T07:24:20.677Z,824
2022-10-20T07:25:36.856Z,800
2022-10-20T07:26:53.052Z,808
2022-10-20T07:28:09.224Z,820
2022-10-20T07:29:25.428Z,832
2022-10-20T07:30:41.658Z,840
2022-10-20T07:31:57.793Z,844
2022-10-20T07:33:13.025Z,856
2022-10-20T07:34:28.218Z,852
2022-10-20T07:35:43.431Z,860
2022-10-20T07:36:58.649Z,840
2022-10-20T07:38:14.826Z,860
2022-10-20T07:39:31.062Z,852
2022-10-20T07:40:47.248Z,852
2022-10-20T07:42:03.404Z,852
2022-10-20T07:43:19.630Z,864
2022-10-20T07:44:35.820Z,864
2022-10-20T07:45:51.967Z,860
2022-10-20T07:47:08.144Z,864
2022-10-20T07:48:24.344Z,868
2022-10-20T07:49:40.535Z,868
2022-10-20T07:50:56.706Z,860
2022-10-20T07:52:12.957Z,852
2022-10-20T07:53:28.119Z,860
2022-10-20T07:56:00.534Z,900
2022-10-20T07:57:16.680Z,928
2022-10-20T07:58:32.872Z,936
2022-10-20T07:59:49.050Z,932
2022-10-20T08:01:05.254Z,936
2022-10-20T08:02:21.426Z,932
2022-10-20T08:03:36.641Z,936
2022-10-20T08:04:51.858Z,976
2022-10-20T08:06:07.131Z,988
2022-10-20T08:07:22.330Z,992
2022-10-20T08:08:38.515Z,992
2022-10-20T08:09:54.642Z,1004
2022-10-20T08:11:10.904Z,1016
2022-10-20T08:12:27.028Z,1024
2022-10-20T08:13:43.278Z,1024
2022-10-20T08:14:59.412Z,1028
2022-10-20T08:16:15.599Z,1036
2022-10-20T08:17:31.836Z,1040
2022-10-20T08:18:47.982Z,1056
2022-10-20T08:20:04.164Z,1068
2022-10-20T08:21:20.416Z,1076
2022-10-20T08:22:36.539Z,1088
2022-10-20T08:23:51.736Z,1104
2022-10-20T08:25:08.002Z,1108
2022-10-20T08:26:24.116Z,1116
2022-10-20T08:27:40.308Z,1120
2022-10-20T08:28:56.506Z,1120
2022-10-20T08:30:12.693Z,1112
2022-10-20T08:31:28.871Z,1108
2022-10-20T08:32:44.084Z,1112
2022-10-20T08:33:59.359Z,1100
2022-10-20T08:35:14.504Z,1100
2022-10-20T08:36:29.709Z,1092
2022-10-20T08:37:45.914Z,1084
2022-10-20T08:39:02.104Z,1072
2022-10-20T08:40:18.352Z,1076
2022-10-20T08:41:34.481Z,1084
2022-10-20T08:42:50.673Z,1080
2022-10-20T08:44:06.923Z,1096
2022-10-20T08:45:23.097Z,1112
2022-10-20T08:46:39.233Z,1120
2022-10-20T08:47:55.409Z,1132
2022-10-20T08:49:11.615Z,1136
2022-10-20T08:50:27.788Z,1144
2022-10-20T08:51:43.973Z,1152
2022-10-20T08:52:59.197Z,1164
2022-10-20T08:54:15.382Z,1172
2022-10-20T08:55:31.632Z,1184
2022-10-20T08:56:47.828Z,1184
2022-10-20T08:58:03.938Z,1184
2022-10-20T08:59:20.193Z,1200
2022-10-20T09:00:36.325Z,1212
2022-10-20T09:01:51.537Z,1216
2022-10-20T09:03:06.752Z,1240
2022-10-20T09:04:21.958Z,1264
2022-10-20T09:05:37.168Z,1300
2022-10-20T09:06:52.382Z,1332
2022-10-20T09:08:07.575Z,1372
2022-10-20T09:09:23.838Z,1400
2022-10-20T09:10:40.026Z,1404
2022-10-20T09:11:56.226Z,1428
2022-10-20T09:13:12.343Z,1440
2022-10-20T09:14:28.537Z,1440
2022-10-20T09:15:44.793Z,1452
2022-10-20T09:17:00.915Z,1484
2022-10-20T09:18:17.172Z,1488
2022-10-20T09:19:33.285Z,1496
2022-10-20T09:20:49.471Z,1536
2022-10-20T09:22:05.666Z,1548
2022-10-20T09:23:21.844Z,1584
2022-10-20T09:24:37.062Z,1680
2022-10-20T09:25:53.327Z,1732
2022-10-20T09:27:09.427Z,1764
2022-10-20T09:28:25.629Z,1776
2022-10-20T09:29:41.814Z,1812
2022-10-20T09:30:57.990Z,1864
2022-10-20T09:32:14.179Z,1916
2022-10-20T09:33:29.407Z,1992
2022-10-20T09:34:44.614Z,2132
2022-10-20T09:35:59.824Z,2236
2022-10-20T09:37:15.111Z,2256
2022-10-20T09:38:31.223Z,2272
2022-10-20T09:39:47.402Z,2368
2022-10-20T09:41:03.671Z,2444
2022-10-20T09:42:19.775Z,2500
2022-10-20T09:43:35.965Z,2484
2022-10-20T09:44:52.159Z,2512
2022-10-20T09:46:08.346Z,2540
2022-10-20T09:47:24.533Z,2592
2022-10-20T09:48:40.733Z,2584
2022-10-20T09:49:56.990Z,2600
2022-10-20T09:51:13.113Z,2644
2022-10-20T09:52:29.287Z,2624
2022-10-20T09:53:44.569Z,2624
2022-10-20T09:55:00.684Z,2692
2022-10-20T09:56:16.884Z,2776
2022-10-20T09:57:33.059Z,2756
2022-10-20T09:58:49.261Z,2824
2022-10-20T10:00:05.438Z,2888
2022-10-20T10:01:21.718Z,2912
2022-10-20T10:02:36.932Z,2936
2022-10-20T10:03:52.126Z,2880
2022-10-20T10:05:08.234Z,2864
2022-10-20T10:06:24.440Z,2844
2022-10-20T10:07:40.617Z,2836
2022-10-20T10:08:56.803Z,2868
2022-10-20T10:10:12.984Z,2912
2022-10-20T10:11:29.270Z,2980
2022-10-20T10:12:45.453Z,2960
2022-10-20T10:14:01.566Z,3048
2022-10-20T10:15:17.838Z,3040
2022-10-20T10:16:33.937Z,3168
2022-10-20T10:17:50.134Z,3216
2022-10-20T10:19:06.396Z,3348
2022-10-20T10:20:21.517Z,3328
2022-10-20T10:21:37.706Z,3396
2022-10-20T10:22:53.890Z,3448
2022-10-20T10:24:10.183Z,3564
2022-10-20T10:25:26.359Z,3740
2022-10-20T10:26:42.457Z,3800
2022-10-20T10:27:58.642Z,3808
2022-10-20T10:29:13.961Z,3812
2022-10-20T10:30:29.070Z,3656
2022-10-20T10:31:44.292Z,3648
2022-10-20T10:32:59.486Z,4000
2022-10-20T10:34:14.798Z,3928
2022-10-20T10:35:29.915Z,4092
2022-10-20T10:36:46.184Z,4128
2022-10-20T10:38:02.298Z,4384
2022-10-20T10:39:18.575Z,4476
2022-10-20T10:40:34.762Z,4648
2022-10-20T10:41:50.854Z,4724
2022-10-20T10:43:07.040Z,4776
2022-10-20T10:44:23.234Z,4792
2022-10-20T10:45:39.434Z,4792
2022-10-20T10:46:55.707Z,4776
2022-10-20T10:48:11.803Z,4736
2022-10-20T10:49:27.999Z,4748
2022-10-20T10:50:44.281Z,4752
2022-10-20T10:51:59.382Z,4608
2022-10-20T10:53:15.678Z,4808
2022-10-20T10:54:31.850Z,4712
2022-10-20T10:55:47.963Z,4816
2022-10-20T10:57:04.148Z,5064
2022-10-20T10:58:20.413Z,5108
2022-10-20T10:59:36.617Z,5244
2022-10-20T11:00:51.745Z,5308
2022-10-20T11:02:07.024Z,5392
2022-10-20T11:03:22.161Z,5156
2022-10-20T11:04:37.355Z,5204
2022-10-20T11:05:53.640Z,5312
2022-10-20T11:07:08.757Z,5332
2022-10-20T11:08:24.941Z,5368
2022-10-20T11:09:41.244Z,5144
2022-10-20T11:10:57.317Z,5440
2022-10-20T11:12:13.509Z,5572
2022-10-20T11:13:29.709Z,5960
2022-10-20T11:14:45.899Z,6268
2022-10-20T11:16:02.175Z,6344
2022-10-20T11:17:18.366Z,6460
2022-10-20T11:18:34.469Z,6576
2022-10-20T11:19:50.647Z,6688
2022-10-20T11:21:06.835Z,6576
2022-10-20T11:22:23.033Z,6560
2022-10-20T11:23:38.237Z,6544
2022-10-20T11:24:54.527Z,6532
2022-10-20T11:26:10.613Z,6528
2022-10-20T11:27:26.907Z,6488
2022-10-20T11:28:42.988Z,6504
2022-10-20T11:29:58.192Z,6612
2022-10-20T11:31:13.505Z,6724
2022-10-20T11:32:29.700Z,6936
2022-10-20T11:33:45.796Z,6348
2022-10-20T11:35:01.982Z,6884
2022-10-20T11:36:18.170Z,8404
2022-10-20T11:37:34.360Z,34144
2022-10-20T11:38:50.547Z,52320
2022-10-20T11:40:06.837Z,50208
2022-10-20T11:41:23.019Z,51872
2022-10-20T11:42:39.202Z,52960
2022-10-20T11:43:55.397Z,53568
2022-10-20T11:45:11.581Z,52320
2022-10-20T11:46:27.670Z,52704
2022-10-20T11:47:42.885Z,53248
2022-10-20T11:48:59.181Z,53728
2022-10-20T11:50:15.355Z,52352
2022-10-20T11:51:31.546Z,52992
2022-10-20T11:52:47.639Z,53280
2022-10-20T11:54:03.929Z,54016
2022-10-20T11:55:20.108Z,53504
2022-10-20T11:56:35.325Z,52992
2022-10-20T11:57:50.432Z,53344
2022-10-20T11:59:05.641Z,47904
2022-10-20T12:00:20.856Z,52416
2022-10-20T12:01:36.068Z,50048
2022-10-20T12:02:51.393Z,49248
2022-10-20T12:04:07.470Z,49600
2022-10-20T12:05:23.763Z,46784
2022-10-20T12:06:39.957Z,47360
2022-10-20T12:07:56.034Z,45120
2022-10-20T12:09:12.326Z,41440
2022-10-20T12:10:28.509Z,40800
2022-10-20T12:11:44.592Z,43040
2022-10-20T12:13:00.890Z,47072
2022-10-20T12:14:17.090Z,44352
2022-10-20T12:15:33.154Z,40160
2022-10-20T12:16:49.354Z,38816
2022-10-20T12:18:05.544Z,27520
2022-10-20T12:19:20.857Z,23520
2022-10-20T12:20:36.927Z,17540
2022-10-20T12:21:53.227Z,9100
2022-10-20T12:23:09.321Z,7532
2022-10-20T12:24:25.494Z,6600
2022-10-20T12:25:41.803Z,5840
2022-10-20T12:26:57.870Z,5324
2022-10-20T12:28:13.090Z,4952
2022-10-20T12:29:28.293Z,4688
2022-10-20T12:30:44.484Z,4452
2022-10-20T12:32:00.683Z,4256
2022-10-20T12:33:16.863Z,4048
2022-10-20T12:34:33.167Z,3936
2022-10-20T12:35:49.352Z,3780
2022-10-20T12:37:05.445Z,3760
2022-10-20T12:38:21.622Z,3744
2022-10-20T12:39:37.926Z,3880
2022-10-20T12:40:54.121Z,4176
2022-10-20T12:42:10.192Z,4476
2022-10-20T12:43:26.375Z,4696
2022-10-20T12:44:42.687Z,4812
2022-10-20T12:45:57.897Z,4752
2022-10-20T12:47:14.078Z,4564
2022-10-20T12:48:30.151Z,4312
2022-10-20T12:49:46.339Z,4044
2022-10-20T12:51:02.527Z,3780
2022-10-20T12:52:18.722Z,3572
2022-10-20T12:53:34.898Z,3432
2022-10-20T12:54:50.110Z,3268
2022-10-20T12:56:05.334Z,3116
2022-10-20T12:57:20.654Z,2972
2022-10-20T12:58:35.871Z,2760
2022-10-20T12:59:50.975Z,2568
2022-10-20T13:01:06.180Z,2420
2022-10-20T13:02:22.356Z,2344
2022-10-20T13:03:38.555Z,2300
2022-10-20T13:04:54.733Z,2288
2022-10-20T13:06:10.936Z,2296
2022-10-20T13:07:27.106Z,2296
2022-10-20T13:08:43.000Z,2308
2022-10-20T13:09:59.606Z,2320
2022-10-20T13:11:15.809Z,2272
2022-10-20T13:12:31.998Z,2304
2022-10-20T13:13:48.187Z,2276
2022-10-20T13:15:04.256Z,2224
2022-10-20T13:16:20.554Z,2216
2022-10-20T13:17:35.762Z,2224
2022-10-20T13:18:51.946Z,2232
2022-10-20T13:20:08.013Z,2224
2022-10-20T13:21:24.322Z,2200
2022-10-20T13:22:40.517Z,2124
2022-10-20T13:23:56.587Z,2124
2022-10-20T13:25:12.895Z,2104
2022-10-20T13:26:27.997Z,2112
2022-10-20T13:27:43.202Z,2032
2022-10-20T13:28:58.540Z,1952
2022-10-20T13:30:13.736Z,1924
2022-10-20T13:31:29.808Z,1928
2022-10-20T13:32:45.991Z,1904
2022-10-20T13:34:02.303Z,1900
2022-10-20T13:35:18.363Z,1908
2022-10-20T13:36:34.688Z,1936
2022-10-20T13:37:50.873Z,1940
2022-10-20T13:39:06.934Z,1908
2022-10-20T13:40:23.132Z,1916
2022-10-20T13:41:39.432Z,1916
2022-10-20T13:42:55.509Z,1904
2022-10-20T13:44:11.823Z,1904
2022-10-20T13:45:27.872Z,1800
2022-10-20T13:46:43.086Z,1724
2022-10-20T13:47:59.398Z,1820
2022-10-20T13:49:15.590Z,1864
2022-10-20T13:50:31.651Z,1948
2022-10-20T13:51:47.840Z,2056
2022-10-20T13:53:04.012Z,2096
2022-10-20T13:54:20.196Z,2052
2022-10-20T13:55:35.416Z,1956
2022-10-20T13:56:50.753Z,1876
2022-10-20T13:58:06.813Z,1792
2022-10-20T13:59:23.128Z,1676
2022-10-20T14:00:38.344Z,1576
2022-10-20T14:01:53.536Z,1564
2022-10-20T14:03:09.735Z,1584
2022-10-20T14:04:25.912Z,1572
2022-10-20T14:05:41.981Z,1624
2022-10-20T14:06:58.305Z,1648
2022-10-20T14:08:14.339Z,1676
2022-10-20T14:09:30.542Z,1736
2022-10-20T14:10:46.714Z,1844
2022-10-20T14:12:03.054Z,1912
2022-10-20T14:13:19.099Z,1916
2022-10-20T14:14:35.414Z,1996
2022-10-20T14:15:51.604Z,2068
2022-10-20T14:17:07.800Z,2080
2022-10-20T14:18:22.861Z,2048
2022-10-20T14:19:39.181Z,1968
2022-10-20T14:20:55.247Z,1888
2022-10-20T14:22:11.554Z,1736
2022-10-20T14:23:27.615Z,1616
2022-10-20T14:24:43.802Z,1496
2022-10-20T14:25:59.992Z,1380
2022-10-20T14:27:15.341Z,1340
2022-10-20T14:28:30.391Z,1368
2022-10-20T14:29:45.754Z,1440
2022-10-20T14:31:00.811Z,1536
2022-10-20T14:32:17.136Z,1632
2022-10-20T14:33:33.183Z,1744
2022-10-20T14:34:49.510Z,1804
2022-10-20T14:36:05.714Z,1748
2022-10-20T14:37:21.884Z,1588
2022-10-20T14:38:37.940Z,1412
2022-10-20T14:39:54.268Z,1284
2022-10-20T14:41:10.458Z,1168
2022-10-20T14:42:26.640Z,1088
2022-10-20T14:43:42.685Z,1088
2022-10-20T14:44:59.023Z,1148
2022-10-20T14:46:15.202Z,1192
2022-10-20T14:47:30.255Z,1240
2022-10-20T14:48:46.451Z,1232
2022-10-20T14:50:02.792Z,1212
2022-10-20T14:51:18.819Z,1232
2022-10-20T14:52:35.161Z,1252
2022-10-20T14:53:51.353Z,1268
2022-10-20T14:55:07.398Z,1252
2022-10-20T14:56:22.596Z,1180
2022-10-20T14:57:37.811Z,1100
2022-10-20T14:58:53.012Z,1036
2022-10-20T15:00:08.226Z,1000
2022-10-20T15:01:24.403Z,956
2022-10-20T15:02:40.745Z,928
2022-10-20T15:03:56.926Z,896
2022-10-20T15:05:12.970Z,864
2022-10-20T15:06:29.159Z,832
2022-10-20T15:07:45.338Z,804
2022-10-20T15:09:01.536Z,772
2022-10-20T15:10:17.716Z,752
2022-10-20T15:11:33.897Z,728
2022-10-20T15:12:50.243Z,708
2022-10-20T15:14:06.283Z,696
2022-10-20T15:15:22.625Z,688
2022-10-20T15:16:37.818Z,672
2022-10-20T15:17:53.853Z,656
2022-10-20T15:19:10.182Z,632
2022-10-20T15:20:26.376Z,616
2022-10-20T15:21:41.437Z,600
2022-10-20T15:22:57.766Z,584
2022-10-20T15:24:13.804Z,560
2022-10-20T15:25:29.166Z,536
2022-10-20T15:26:44.228Z,508
2022-10-20T15:28:00.419Z,480
2022-10-20T15:29:15.634Z,444
2022-10-20T15:30:30.833Z,412
2022-10-20T15:31:47.169Z,376
2022-10-20T15:33:03.198Z,344
2022-10-20T15:34:19.389Z,316
2022-10-20T15:35:35.735Z,292
2022-10-20T15:36:51.764Z,272
2022-10-20T15:38:08.112Z,248
2022-10-20T15:39:24.132Z,228
2022-10-20T15:40:40.320Z,208
2022-10-20T15:41:56.661Z,196
2022-10-20T15:43:12.696Z,184
2022-10-20T15:44:29.035Z,172
2022-10-20T15:45:45.226Z,156
2022-10-20T15:47:00.273Z,148
2022-10-20T15:48:16.465Z,136
2022-10-20T15:49:32.661Z,128
2022-10-20T15:50:48.840Z,116
2022-10-20T15:52:05.027Z,104
2022-10-20T15:53:21.364Z,96
2022-10-20T15:54:37.560Z,88
2022-10-20T15:55:52.608Z,80
2022-10-20T15:57:07.816Z,76
2022-10-20T15:58:24.008Z,68
2022-10-20T15:59:40.190Z,60
2022-10-20T16:00:56.526Z,56
2022-10-20T16:02:12.568Z,48
2022-10-20T16:03:28.743Z,44
2022-10-20T16:04:44.929Z,40
2022-10-20T16:06:01.120Z,36
2022-10-20T16:07:17.477Z,32
2022-10-20T16:08:33.663Z,28
2022-10-20T16:09:49.856Z,24
2022-10-20T16:11:05.883Z,20
2022-10-20T16:12:22.070Z,16
2022-10-20T16:13:37.426Z,16
2022-10-20T16:14:53.444Z,12
2022-10-20T16:16:09.632Z,12
2022-10-20T16:17:25.829Z,8
2022-10-20T16:18:42.020Z,8
2022-10-20T16:19:58.206Z,8
2022-10-20T16:21:14.542Z,4
2022-10-20T16:22:29.754Z,4
2022-10-20T16:23:44.959Z,4
2022-10-20T16:25:00.020Z,4
2022-10-20T16:26:15.210Z,0
2022-10-20T16:27:30.425Z,0
2022-10-20T16:28:45.791Z,0
2022-10-20T16:30:01.824Z,0
2022-10-20T16:31:18.195Z,0
2022-10-20T16:32:34.358Z,0
2022-10-20T16:33:50.557Z,0
2022-10-20T16:35:06.738Z,0
2022-10-20T16:36:22.934Z,0
2022-10-20T16:37:38.951Z,0
2022-10-20T16:38:55.292Z,0
2022-10-20T16:40:11.325Z,0
2022-10-20T16:41:27.515Z,0
2022-10-20T16:42:43.692Z,0
2022-10-20T16:43:59.876Z,0
2022-10-20T16:45:15.258Z,0
2022-10-20T16:46:31.430Z,0
2022-10-20T16:47:47.625Z,0
2022-10-20T16:49:03.641Z,0
2022-10-20T16:50:19.826Z,0
2022-10-20T16:51:36.028Z,0
2022-10-20T16:52:52.215Z,0
2022-10-20T16:54:07.593Z,0
2022-10-20T16:55:22.623Z,0
2022-10-20T16:56:37.839Z,0
2022-10-20T16:57:53.205Z,0
2022-10-20T16:59:09.394Z,0
2022-10-20T17:00:25.585Z,0
2022-10-20T17:01:41.593Z,0
2022-10-20T17:02:57.787Z,0
2022-10-20T17:04:13.967Z,0
2022-10-20T17:05:30.329Z,0
2022-10-20T17:06:46.522Z,0
2022-10-20T17:08:02.543Z,0
2022-10-20T17:09:18.902Z,0
2022-10-20T17:10:34.918Z,0
2022-10-20T17:11:51.096Z,0
2022-10-20T17:13:07.289Z,0
2022-10-20T17:14:22.668Z,0
2022-10-20T17:15:38.669Z,0
2022-10-20T17:16:54.852Z,0
2022-10-20T17:18:11.046Z,0
2022-10-20T17:19:27.224Z,0
2022-10-20T17:20:43.422Z,0
2022-10-20T17:21:59.784Z,0
2022-10-20T17:23:14.997Z,0
2022-10-20T17:24:30.207Z,0
2022-10-20T17:25:45.417Z,0
2022-10-20T17:27:00.615Z,0
2022-10-20T17:28:16.629Z,0
2022-10-20T17:29:32.814Z,0
2022-10-20T17:30:49.171Z,0
2022-10-20T17:32:05.361Z,0
2022-10-20T17:33:21.384Z,0
2022-10-20T17:34:37.744Z,0
2022-10-20T17:35:53.932Z,0
2022-10-20T17:37:10.109Z,0
2022-10-20T17:38:26.301Z,0
2022-10-20T17:39:42.310Z,0
2022-10-20T17:40:58.505Z,0
2022-10-20T17:42:14.860Z,0